createdAt,value
2023-02-26T00:00:38.457Z,-0.79
2023-02-26T00:01:48.654Z,-0.78
2023-02-26T00:02:51.457Z,-0.77
2023-02-26T00:03:55.464Z,-0.77
2023-02-26T00:04:59.641Z,-0.76
2023-02-26T00:06:03.767Z,-0.76
2023-02-26T00:07:08.033Z,-0.77
2023-02-26T00:08:12.062Z,-0.76
2023-02-26T00:09:16.170Z,-0.75
2023-02-26T00:10:20.351Z,-0.75
2023-02-26T00:11:24.665Z,-0.74
2023-02-26T00:12:28.677Z,-0.72
2023-02-26T00:13:32.802Z,-0.71
2023-02-26T00:14:37.066Z,-0.70
2023-02-26T00:15:41.174Z,-0.69
2023-02-26T00:16:45.378Z,-0.68
2023-02-26T00:17:49.453Z,-0.68
2023-02-26T00:19:07.700Z,-0.68
2023-02-26T00:20:24.740Z,-0.69
2023-02-26T00:21:27.428Z,-0.70
2023-02-26T00:22:31.550Z,-0.71
2023-02-26T00:23:35.593Z,-0.72
2023-02-26T00:24:39.763Z,-0.72
2023-02-26T00:25:43.935Z,-0.71
2023-02-26T00:26:47.932Z,-0.69
2023-02-26T00:27:52.205Z,-0.70
2023-02-26T00:28:56.258Z,-0.70
2023-02-26T00:30:00.469Z,-0.71
2023-02-26T00:31:04.641Z,-0.71
2023-02-26T00:32:08.879Z,-0.73
2023-02-26T00:33:12.817Z,-0.75
2023-02-26T00:34:17.006Z,-0.76
2023-02-26T00:35:21.135Z,-0.77
2023-02-26T00:36:25.813Z,-0.76
2023-02-26T00:37:29.400Z,-0.77
2023-02-26T00:38:33.589Z,-0.76
2023-02-26T00:39:37.744Z,-0.76
2023-02-26T00:40:41.969Z,-0.77
2023-02-26T00:41:46.066Z,-0.78
2023-02-26T00:42:50.249Z,-0.80
2023-02-26T00:43:54.358Z,-0.81
2023-02-26T00:45:01.491Z,-0.81
2023-02-26T00:46:04.600Z,-0.81
2023-02-26T00:47:08.662Z,-0.82
2023-02-26T00:48:12.873Z,-0.83
2023-02-26T00:49:16.900Z,-0.82
2023-02-26T00:50:21.076Z,-0.84
2023-02-26T00:51:25.085Z,-0.86
2023-02-26T00:52:29.440Z,-0.89
2023-02-26T00:53:33.413Z,-0.89
2023-02-26T00:54:37.502Z,-0.91
2023-02-26T00:55:55.859Z,-0.92
2023-02-26T00:56:58.775Z,-0.97
2023-02-26T00:58:02.905Z,-0.98
2023-02-26T00:59:07.224Z,-1.00
2023-02-26T01:00:11.219Z,-1.02
2023-02-26T01:01:15.458Z,-1.03
2023-02-26T01:02:20.405Z,-1.04
2023-02-26T01:03:24.156Z,-1.09
2023-02-26T01:04:28.268Z,-1.09
2023-02-26T01:05:32.383Z,-1.13
2023-02-26T01:06:36.515Z,-1.16
2023-02-26T01:07:40.659Z,-1.18
2023-02-26T01:08:44.765Z,-1.17
2023-02-26T01:09:48.937Z,-1.17
2023-02-26T01:10:52.929Z,-1.16
2023-02-26T01:11:57.049Z,-1.16
2023-02-26T01:13:01.277Z,-1.17
2023-02-26T01:14:19.527Z,-1.18
2023-02-26T01:15:22.399Z,-1.18
2023-02-26T01:16:26.699Z,-1.17
2023-02-26T01:17:30.526Z,-1.17
2023-02-26T01:18:34.672Z,-1.17
2023-02-26T01:19:39.020Z,-1.17
2023-02-26T01:20:43.063Z,-1.15
2023-02-26T01:21:47.163Z,-1.14
2023-02-26T01:22:51.386Z,-1.16
2023-02-26T01:23:55.451Z,-1.18
2023-02-26T01:24:59.502Z,-1.20
2023-02-26T01:26:03.583Z,-1.21
2023-02-26T01:27:07.797Z,-1.20
2023-02-26T01:28:11.990Z,-1.21
2023-02-26T01:29:16.085Z,-1.21
2023-02-26T01:30:20.285Z,-1.22
2023-02-26T01:31:24.433Z,-1.26
2023-02-26T01:32:28.743Z,-1.31
2023-02-26T01:33:32.669Z,-1.34
2023-02-26T01:34:36.923Z,-1.34
2023-02-26T01:35:41.102Z,-1.35
2023-02-26T01:36:45.270Z,-1.34
2023-02-26T01:37:49.521Z,-1.31
2023-02-26T01:38:53.603Z,-1.28
2023-02-26T01:40:03.818Z,-1.27
2023-02-26T01:41:06.636Z,-1.25
2023-02-26T01:42:10.755Z,-1.23
2023-02-26T01:43:14.910Z,-1.23
2023-02-26T01:44:19.014Z,-1.22
2023-02-26T01:45:23.207Z,-1.22
2023-02-26T01:46:27.238Z,-1.23
2023-02-26T01:47:31.414Z,-1.26
2023-02-26T01:48:35.546Z,-1.26
2023-02-26T01:49:39.743Z,-1.30
2023-02-26T01:50:43.749Z,-1.31
2023-02-26T01:51:50.826Z,-1.30
2023-02-26T01:52:54.029Z,-1.29
2023-02-26T01:53:58.128Z,-1.29
2023-02-26T01:55:02.154Z,-1.28
2023-02-26T01:56:06.265Z,-1.29
2023-02-26T01:57:10.504Z,-1.30
2023-02-26T01:58:14.571Z,-1.34
2023-02-26T01:59:18.693Z,-1.39
2023-02-26T02:00:22.953Z,-1.41
2023-02-26T02:01:27.058Z,-1.44
2023-02-26T02:02:31.194Z,-1.46
2023-02-26T02:03:35.255Z,-1.49
2023-02-26T02:04:39.351Z,-1.51
2023-02-26T02:05:43.386Z,-1.55
2023-02-26T02:06:47.607Z,-1.56
2023-02-26T02:07:51.706Z,-1.59
2023-02-26T02:08:55.848Z,-1.63
2023-02-26T02:09:59.867Z,-1.64
2023-02-26T02:11:04.049Z,-1.67
2023-02-26T02:13:34.717Z,-1.68
2023-02-26T02:14:38.766Z,-1.70
2023-02-26T02:15:42.856Z,-1.70
2023-02-26T02:16:47.122Z,-1.70
2023-02-26T02:17:51.031Z,-1.71
2023-02-26T02:18:55.221Z,-1.71
2023-02-26T02:19:59.331Z,-1.71
2023-02-26T02:21:03.480Z,-1.72
2023-02-26T02:22:07.590Z,-1.73
2023-02-26T02:23:11.628Z,-1.75
2023-02-26T02:24:15.792Z,-1.75
2023-02-26T02:25:19.937Z,-1.75
2023-02-26T02:26:24.675Z,-1.75
2023-02-26T02:27:28.174Z,-1.73
2023-02-26T02:28:33.343Z,-1.75
2023-02-26T02:29:37.055Z,-1.76
2023-02-26T02:30:41.180Z,-1.77
2023-02-26T02:31:45.515Z,-1.77
2023-02-26T02:32:49.562Z,-1.77
2023-02-26T02:33:53.563Z,-1.78
2023-02-26T02:34:57.661Z,-1.78
2023-02-26T02:36:01.836Z,-1.79
2023-02-26T02:37:06.056Z,-1.80
2023-02-26T02:38:10.158Z,-1.79
2023-02-26T02:39:14.289Z,-1.79
2023-02-26T02:40:18.470Z,-1.78
2023-02-26T02:41:22.547Z,-1.78
2023-02-26T02:42:26.772Z,-1.77
2023-02-26T02:43:30.790Z,-1.78
2023-02-26T02:44:35.049Z,-1.78
2023-02-26T02:45:39.186Z,-1.77
2023-02-26T02:46:43.199Z,-1.77
2023-02-26T02:47:47.324Z,-1.78
2023-02-26T02:48:51.522Z,-1.79
2023-02-26T02:49:55.653Z,-1.79
2023-02-26T02:50:59.796Z,-1.79
2023-02-26T02:52:04.043Z,-1.80
2023-02-26T02:53:08.076Z,-1.82
2023-02-26T02:54:12.206Z,-1.82
2023-02-26T02:55:16.327Z,-1.83
2023-02-26T02:56:20.505Z,-1.84
2023-02-26T02:57:24.560Z,-1.84
2023-02-26T02:58:28.760Z,-1.85
2023-02-26T02:59:32.859Z,-1.86
2023-02-26T03:00:37.065Z,-1.86
2023-02-26T03:01:41.103Z,-1.88
2023-02-26T03:02:45.413Z,-1.89
2023-02-26T03:03:49.464Z,-1.89
2023-02-26T03:04:53.715Z,-1.89
2023-02-26T03:05:57.803Z,-1.89
2023-02-26T03:07:01.870Z,-1.89
2023-02-26T03:08:05.898Z,-1.90
2023-02-26T03:09:10.214Z,-1.92
2023-02-26T03:10:14.345Z,-1.91
2023-02-26T03:11:18.483Z,-1.91
2023-02-26T03:12:22.642Z,-1.89
2023-02-26T03:13:26.734Z,-1.89
2023-02-26T03:14:30.941Z,-1.88
2023-02-26T03:15:34.935Z,-1.87
2023-02-26T03:16:53.230Z,-1.88
2023-02-26T03:17:55.947Z,-1.88
2023-02-26T03:19:00.054Z,-1.90
2023-02-26T03:20:04.240Z,-1.91
2023-02-26T03:21:08.320Z,-1.92
2023-02-26T03:22:12.397Z,-1.92
2023-02-26T03:23:16.398Z,-1.92
2023-02-26T03:24:20.510Z,-1.93
2023-02-26T03:25:24.587Z,-1.93
2023-02-26T03:26:29.068Z,-1.94
2023-02-26T03:27:32.827Z,-1.93
2023-02-26T03:28:36.990Z,-1.93
2023-02-26T03:29:41.098Z,-1.93
2023-02-26T03:30:45.249Z,-1.92
2023-02-26T03:31:49.490Z,-1.92
2023-02-26T03:32:53.445Z,-1.93
2023-02-26T03:33:57.612Z,-1.91
2023-02-26T03:35:01.764Z,-1.90
2023-02-26T03:36:05.964Z,-1.91
2023-02-26T03:37:10.021Z,-1.92
2023-02-26T03:38:14.168Z,-1.92
2023-02-26T03:39:18.401Z,-1.93
2023-02-26T03:40:22.542Z,-1.91
2023-02-26T03:41:26.797Z,-1.90
2023-02-26T03:42:30.749Z,-1.90
2023-02-26T03:43:34.888Z,-1.90
2023-02-26T03:44:39.054Z,-1.90
2023-02-26T03:45:43.479Z,-1.91
2023-02-26T03:46:47.255Z,-1.92
2023-02-26T03:47:51.492Z,-1.92
2023-02-26T03:48:55.626Z,-1.92
2023-02-26T03:49:59.700Z,-1.91
2023-02-26T03:51:03.855Z,-1.92
2023-02-26T03:52:08.132Z,-1.94
2023-02-26T03:53:12.095Z,-1.93
2023-02-26T03:54:30.318Z,-1.94
2023-02-26T03:55:33.016Z,-1.96
2023-02-26T03:56:37.058Z,-1.97
2023-02-26T03:57:41.234Z,-1.98
2023-02-26T03:58:45.304Z,-2.01
2023-02-26T03:59:49.348Z,-2.02
2023-02-26T04:00:53.597Z,-2.02
2023-02-26T04:01:57.728Z,-2.02
2023-02-26T04:03:01.802Z,-2.03
2023-02-26T04:04:05.970Z,-2.04
2023-02-26T04:05:13.232Z,-2.03
2023-02-26T04:06:16.299Z,-2.03
2023-02-26T04:07:20.535Z,-2.04
2023-02-26T04:08:24.430Z,-2.04
2023-02-26T04:09:28.699Z,-2.06
2023-02-26T04:10:32.782Z,-2.06
2023-02-26T04:11:36.959Z,-2.07
2023-02-26T04:12:41.115Z,-2.07
2023-02-26T04:13:45.086Z,-2.05
2023-02-26T04:14:49.345Z,-2.04
2023-02-26T04:15:53.456Z,-2.02
2023-02-26T04:16:57.582Z,-2.04
2023-02-26T04:18:01.665Z,-2.04
2023-02-26T04:19:05.778Z,-2.02
2023-02-26T04:20:09.953Z,-2.03
2023-02-26T04:21:14.143Z,-2.02
2023-02-26T04:22:18.407Z,-2.02
2023-02-26T04:23:22.496Z,-2.03
2023-02-26T04:24:26.628Z,-2.04
2023-02-26T04:25:30.748Z,-2.05
2023-02-26T04:26:34.932Z,-2.06
2023-02-26T04:27:39.132Z,-2.06
2023-02-26T04:28:43.149Z,-2.07
2023-02-26T04:29:47.328Z,-2.06
2023-02-26T04:30:51.738Z,-2.07
2023-02-26T04:31:55.616Z,-2.06
2023-02-26T04:32:59.546Z,-2.06
2023-02-26T04:34:03.707Z,-2.05
2023-02-26T04:35:07.940Z,-2.05
2023-02-26T04:36:11.936Z,-2.06
2023-02-26T04:37:16.125Z,-2.06
2023-02-26T04:38:20.291Z,-2.05
2023-02-26T04:39:24.384Z,-2.04
2023-02-26T04:40:28.615Z,-2.03
2023-02-26T04:41:32.603Z,-2.01
2023-02-26T04:42:36.788Z,-2.01
2023-02-26T04:43:41.048Z,-2.01
2023-02-26T04:44:45.064Z,-1.99
2023-02-26T04:45:49.207Z,-2.00
2023-02-26T04:46:53.381Z,-2.02
2023-02-26T04:47:57.532Z,-2.03
2023-02-26T04:49:01.613Z,-2.03
2023-02-26T04:50:05.692Z,-2.04
2023-02-26T04:51:09.817Z,-2.04
2023-02-26T04:52:13.962Z,-2.05
2023-02-26T04:53:18.046Z,-2.06
2023-02-26T04:54:22.152Z,-2.06
2023-02-26T04:55:26.206Z,-2.06
2023-02-26T04:56:30.344Z,-2.07
2023-02-26T04:57:34.496Z,-2.07
2023-02-26T04:58:38.798Z,-2.08
2023-02-26T04:59:43.135Z,-2.09
2023-02-26T05:00:47.132Z,-2.08
2023-02-26T05:01:51.413Z,-2.09
2023-02-26T05:03:09.424Z,-2.09
2023-02-26T05:04:12.543Z,-2.09
2023-02-26T05:05:16.483Z,-2.10
2023-02-26T05:06:20.741Z,-2.09
2023-02-26T05:07:24.856Z,-2.12
2023-02-26T05:08:28.968Z,-2.13
2023-02-26T05:09:39.212Z,-2.13
2023-02-26T05:10:41.949Z,-2.14
2023-02-26T05:11:46.034Z,-2.14
2023-02-26T05:12:50.250Z,-2.14
2023-02-26T05:13:54.299Z,-2.13
2023-02-26T05:14:58.481Z,-2.14
2023-02-26T05:16:02.672Z,-2.15
2023-02-26T05:17:06.630Z,-2.14
2023-02-26T05:18:10.852Z,-2.14
2023-02-26T05:19:14.918Z,-2.13
2023-02-26T05:20:19.053Z,-2.15
2023-02-26T05:21:26.051Z,-2.14
2023-02-26T05:22:27.273Z,-2.15
2023-02-26T05:23:31.377Z,-2.16
2023-02-26T05:24:35.595Z,-2.16
2023-02-26T05:25:39.610Z,-2.12
2023-02-26T05:26:43.824Z,-2.13
2023-02-26T05:27:48.023Z,-2.11
2023-02-26T05:28:52.163Z,-2.11
2023-02-26T05:29:56.252Z,-2.08
2023-02-26T05:31:14.459Z,-2.06
2023-02-26T05:32:17.192Z,-2.05
2023-02-26T05:33:21.231Z,-2.05
2023-02-26T05:34:25.379Z,-2.08
2023-02-26T05:35:29.544Z,-2.10
2023-02-26T05:36:33.597Z,-2.14
2023-02-26T05:37:37.875Z,-2.14
2023-02-26T05:38:42.018Z,-2.15
2023-02-26T05:39:46.159Z,-2.18
2023-02-26T05:40:50.191Z,-2.19
2023-02-26T05:41:54.338Z,-2.22
2023-02-26T05:42:58.584Z,-2.23
2023-02-26T05:44:02.541Z,-2.23
2023-02-26T05:45:06.848Z,-2.22
2023-02-26T05:46:10.902Z,-2.19
2023-02-26T05:47:15.078Z,-2.21
2023-02-26T05:48:19.174Z,-2.21
2023-02-26T05:49:23.166Z,-2.21
2023-02-26T05:50:27.456Z,-2.21
2023-02-26T05:51:31.632Z,-2.22
2023-02-26T05:52:35.797Z,-2.25
2023-02-26T05:53:39.930Z,-2.25
2023-02-26T05:54:44.090Z,-2.25
2023-02-26T05:55:48.332Z,-2.25
2023-02-26T05:56:52.380Z,-2.24
2023-02-26T05:57:56.588Z,-2.22
2023-02-26T05:59:00.574Z,-2.22
2023-02-26T06:00:04.607Z,-2.21
2023-02-26T06:01:08.828Z,-2.21
2023-02-26T06:02:13.052Z,-2.23
2023-02-26T06:03:17.141Z,-2.22
2023-02-26T06:04:21.126Z,-2.22
2023-02-26T06:05:25.292Z,-2.22
2023-02-26T06:06:29.414Z,-2.23
2023-02-26T06:07:33.537Z,-2.22
2023-02-26T06:08:37.792Z,-2.24
2023-02-26T06:09:41.963Z,-2.24
2023-02-26T06:10:46.258Z,-2.24
2023-02-26T06:11:50.382Z,-2.23
2023-02-26T06:12:54.377Z,-2.24
2023-02-26T06:13:58.587Z,-2.28
2023-02-26T06:15:02.700Z,-2.27
2023-02-26T06:16:06.962Z,-2.27
2023-02-26T06:17:11.044Z,-2.27
2023-02-26T06:18:15.284Z,-2.26
2023-02-26T06:19:19.482Z,-2.25
2023-02-26T06:20:23.644Z,-2.25
2023-02-26T06:21:27.845Z,-2.26
2023-02-26T06:22:31.937Z,-2.26
2023-02-26T06:23:36.112Z,-2.26
2023-02-26T06:24:40.230Z,-2.25
2023-02-26T06:25:44.329Z,-2.25
2023-02-26T06:26:48.505Z,-2.25
2023-02-26T06:27:52.526Z,-2.23
2023-02-26T06:28:56.721Z,-2.23
2023-02-26T06:30:00.872Z,-2.24
2023-02-26T06:31:05.062Z,-2.26
2023-02-26T06:32:09.296Z,-2.24
2023-02-26T06:33:13.292Z,-2.25
2023-02-26T06:34:17.500Z,-2.26
2023-02-26T06:35:21.657Z,-2.26
2023-02-26T06:36:26.199Z,-2.26
2023-02-26T06:37:29.863Z,-2.26
2023-02-26T06:38:34.059Z,-2.24
2023-02-26T06:39:38.095Z,-2.24
2023-02-26T06:40:42.246Z,-2.23
2023-02-26T06:41:46.510Z,-2.22
2023-02-26T06:42:50.599Z,-2.21
2023-02-26T06:43:54.875Z,-2.21
2023-02-26T06:44:58.947Z,-2.21
2023-02-26T06:46:03.217Z,-2.21
2023-02-26T06:47:07.288Z,-2.20
2023-02-26T06:48:11.481Z,-2.19
2023-02-26T06:49:15.623Z,-2.18
2023-02-26T06:50:19.745Z,-2.17
2023-02-26T06:51:23.855Z,-2.17
2023-02-26T06:52:27.863Z,-2.16
2023-02-26T06:53:32.105Z,-2.16
2023-02-26T06:54:36.315Z,-2.14
2023-02-26T06:55:40.502Z,-2.13
2023-02-26T06:56:44.612Z,-2.11
2023-02-26T06:57:48.841Z,-2.11
2023-02-26T06:58:53.067Z,-2.09
2023-02-26T06:59:57.244Z,-2.08
2023-02-26T07:01:01.226Z,-2.06
2023-02-26T07:02:05.381Z,-2.04
2023-02-26T07:03:09.333Z,-2.02
2023-02-26T07:04:13.636Z,-2.00
2023-02-26T07:05:17.726Z,-1.99
2023-02-26T07:06:27.808Z,-1.97
2023-02-26T07:07:25.982Z,-1.94
2023-02-26T07:08:30.101Z,-1.91
2023-02-26T07:09:34.231Z,-1.88
2023-02-26T07:10:38.246Z,-1.86
2023-02-26T07:11:42.386Z,-1.84
2023-02-26T07:12:46.545Z,-1.81
2023-02-26T07:13:50.759Z,-1.80
2023-02-26T07:14:54.923Z,-1.79
2023-02-26T07:15:59.016Z,-1.77
2023-02-26T07:17:03.349Z,-1.76
2023-02-26T07:18:07.402Z,-1.75
2023-02-26T07:19:11.466Z,-1.73
2023-02-26T07:20:15.668Z,-1.73
2023-02-26T07:21:19.942Z,-1.71
2023-02-26T07:22:23.945Z,-1.69
2023-02-26T07:23:31.141Z,-1.68
2023-02-26T07:24:34.297Z,-1.65
2023-02-26T07:25:38.544Z,-1.64
2023-02-26T07:26:42.628Z,-1.63
2023-02-26T07:27:46.775Z,-1.62
2023-02-26T07:28:50.948Z,-1.62
2023-02-26T07:29:55.030Z,-1.62
2023-02-26T07:30:59.286Z,-1.60
2023-02-26T07:32:03.534Z,-1.59
2023-02-26T07:33:07.724Z,-1.57
2023-02-26T07:34:17.828Z,-1.55
2023-02-26T07:35:20.487Z,-1.54
2023-02-26T07:36:24.888Z,-1.53
2023-02-26T07:37:28.762Z,-1.54
2023-02-26T07:38:32.857Z,-1.53
2023-02-26T07:39:37.068Z,-1.52
2023-02-26T07:40:41.153Z,-1.50
2023-02-26T07:41:45.289Z,-1.46
2023-02-26T07:42:49.512Z,-1.45
2023-02-26T07:43:53.641Z,-1.43
2023-02-26T07:44:57.699Z,-1.43
2023-02-26T07:46:02.017Z,-1.42
2023-02-26T07:47:06.026Z,-1.39
2023-02-26T07:48:10.148Z,-1.36
2023-02-26T07:49:14.276Z,-1.36
2023-02-26T07:50:18.489Z,-1.35
2023-02-26T07:51:22.914Z,-1.35
2023-02-26T07:52:26.794Z,-1.34
2023-02-26T07:53:30.962Z,-1.34
2023-02-26T07:54:35.089Z,-1.35
2023-02-26T07:55:39.388Z,-1.36
2023-02-26T07:56:43.429Z,-1.35
2023-02-26T07:57:47.633Z,-1.33
2023-02-26T07:58:51.722Z,-1.32
2023-02-26T07:59:55.950Z,-1.31
2023-02-26T08:01:00.140Z,-1.30
2023-02-26T08:02:04.251Z,-1.28
2023-02-26T08:03:08.458Z,-1.29
2023-02-26T08:04:12.509Z,-1.27
2023-02-26T08:05:16.684Z,-1.25
2023-02-26T08:06:20.949Z,-1.24
2023-02-26T08:07:39.028Z,-1.23
2023-02-26T08:08:41.946Z,-1.26
2023-02-26T08:09:46.159Z,-1.26
2023-02-26T08:10:50.283Z,-1.26
2023-02-26T08:11:54.400Z,-1.28
2023-02-26T08:12:58.548Z,-1.29
2023-02-26T08:14:02.681Z,-1.28
2023-02-26T08:15:06.734Z,-1.27
2023-02-26T08:16:11.013Z,-1.24
2023-02-26T08:17:15.112Z,-1.24
2023-02-26T08:18:19.188Z,-1.25
2023-02-26T08:19:23.432Z,-1.28
2023-02-26T08:20:27.510Z,-1.27
2023-02-26T08:21:31.593Z,-1.24
2023-02-26T08:22:35.757Z,-1.23
2023-02-26T08:23:39.930Z,-1.22
2023-02-26T08:24:44.132Z,-1.21
2023-02-26T08:25:48.257Z,-1.16
2023-02-26T08:26:52.380Z,-1.13
2023-02-26T08:27:56.544Z,-1.10
2023-02-26T08:29:00.706Z,-1.11
2023-02-26T08:30:04.928Z,-1.13
2023-02-26T08:32:36.024Z,-1.13
2023-02-26T08:33:39.864Z,-1.08
2023-02-26T08:34:44.086Z,-1.04
2023-02-26T08:35:48.291Z,-1.02
2023-02-26T08:36:52.367Z,-1.00
2023-02-26T08:37:56.530Z,-1.01
2023-02-26T08:39:00.683Z,-1.05
2023-02-26T08:40:04.822Z,-1.04
2023-02-26T08:41:08.967Z,-1.01
2023-02-26T08:42:13.150Z,-0.97
2023-02-26T08:43:17.276Z,-0.95
2023-02-26T08:44:21.375Z,-0.96
2023-02-26T08:45:26.480Z,-0.96
2023-02-26T08:46:30.478Z,-0.98
2023-02-26T08:47:39.359Z,-1.01
2023-02-26T08:48:38.549Z,-1.04
2023-02-26T08:49:42.600Z,-1.07
2023-02-26T08:50:46.795Z,-1.03
2023-02-26T08:51:51.029Z,-1.01
2023-02-26T08:52:55.140Z,-1.00
2023-02-26T08:53:59.352Z,-0.96
2023-02-26T08:55:03.393Z,-0.93
2023-02-26T08:56:07.580Z,-0.92
2023-02-26T08:57:11.737Z,-0.90
2023-02-26T08:58:16.011Z,-0.89
2023-02-26T08:59:20.114Z,-0.88
2023-02-26T09:00:24.262Z,-0.86
2023-02-26T09:01:28.967Z,-0.84
2023-02-26T09:02:32.620Z,-0.83
2023-02-26T09:03:36.803Z,-0.82
2023-02-26T09:04:41.071Z,-0.82
2023-02-26T09:05:45.207Z,-0.83
2023-02-26T09:06:49.307Z,-0.82
2023-02-26T09:07:53.498Z,-0.81
2023-02-26T09:08:57.676Z,-0.84
2023-02-26T09:10:01.984Z,-0.92
2023-02-26T09:11:05.934Z,-0.98
2023-02-26T09:12:10.234Z,-1.05
2023-02-26T09:13:14.266Z,-1.09
2023-02-26T09:14:18.650Z,-1.06
2023-02-26T09:15:22.655Z,-1.03
2023-02-26T09:16:27.366Z,-0.98
2023-02-26T09:17:31.038Z,-0.97
2023-02-26T09:18:35.235Z,-0.94
2023-02-26T09:19:39.435Z,-0.98
2023-02-26T09:20:49.556Z,-1.03
2023-02-26T09:21:52.321Z,-1.01
2023-02-26T09:22:56.479Z,-0.99
2023-02-26T09:24:00.613Z,-0.96
2023-02-26T09:25:04.855Z,-1.03
2023-02-26T09:26:09.021Z,-1.03
2023-02-26T09:27:13.128Z,-0.97
2023-02-26T09:28:17.297Z,-0.94
2023-02-26T09:29:21.400Z,-0.92
2023-02-26T09:30:25.515Z,-0.91
2023-02-26T09:31:29.683Z,-0.90
2023-02-26T09:32:33.801Z,-0.86
2023-02-26T09:33:37.758Z,-0.90
2023-02-26T09:34:42.057Z,-0.91
2023-02-26T09:35:46.187Z,-0.92
2023-02-26T09:36:50.253Z,-0.95
2023-02-26T09:37:54.467Z,-0.97
2023-02-26T09:38:58.511Z,-1.04
2023-02-26T09:40:02.728Z,-1.07
2023-02-26T09:41:07.019Z,-1.10
2023-02-26T09:42:11.556Z,-1.08
2023-02-26T09:43:15.502Z,-1.05
2023-02-26T09:44:19.666Z,-1.01
2023-02-26T09:45:23.891Z,-0.99
2023-02-26T09:46:28.269Z,-0.96
2023-02-26T09:47:32.184Z,-0.99
2023-02-26T09:48:36.368Z,-1.13
2023-02-26T09:49:40.649Z,-1.21
2023-02-26T09:50:44.755Z,-1.24
2023-02-26T09:51:50.182Z,-1.22
2023-02-26T09:52:53.154Z,-1.20
2023-02-26T09:53:57.251Z,-1.12
2023-02-26T09:55:01.427Z,-1.19
2023-02-26T09:56:05.437Z,-1.22
2023-02-26T09:57:09.656Z,-1.19
2023-02-26T09:58:13.950Z,-1.15
2023-02-26T09:59:18.915Z,-1.15
2023-02-26T10:00:22.576Z,-1.09
2023-02-26T10:01:26.815Z,-1.05
2023-02-26T10:02:30.952Z,-1.01
2023-02-26T10:03:35.234Z,-0.91
2023-02-26T10:04:39.446Z,-0.86
2023-02-26T10:05:43.637Z,-0.89
2023-02-26T10:06:47.715Z,-0.93
2023-02-26T10:07:52.778Z,-0.97
2023-02-26T10:08:56.557Z,-0.97
2023-02-26T10:10:00.717Z,-1.01
2023-02-26T10:11:04.924Z,-1.09
2023-02-26T10:12:09.160Z,-1.15
2023-02-26T10:13:13.369Z,-1.15
2023-02-26T10:14:17.535Z,-1.11
2023-02-26T10:15:21.699Z,-1.07
2023-02-26T10:16:26.448Z,-1.06
2023-02-26T10:17:29.999Z,-1.02
2023-02-26T10:18:34.204Z,-0.99
2023-02-26T10:19:38.266Z,-0.97
2023-02-26T10:20:42.453Z,-0.97
2023-02-26T10:21:46.612Z,-0.97
2023-02-26T10:22:50.792Z,-0.96
2023-02-26T10:23:54.869Z,-0.99
2023-02-26T10:24:59.235Z,-0.96
2023-02-26T10:26:17.435Z,-0.94
2023-02-26T10:27:20.515Z,-0.88
2023-02-26T10:28:24.608Z,-0.89
2023-02-26T10:29:28.733Z,-0.89
2023-02-26T10:30:33.016Z,-0.83
2023-02-26T10:31:43.237Z,-0.83
2023-02-26T10:32:45.919Z,-0.79
2023-02-26T10:33:49.965Z,-0.70
2023-02-26T10:34:54.116Z,-0.63
2023-02-26T10:35:59.373Z,-0.58
2023-02-26T10:37:02.479Z,-0.53
2023-02-26T10:38:06.602Z,-0.48
2023-02-26T10:39:10.895Z,-0.45
2023-02-26T10:40:14.994Z,-0.41
2023-02-26T10:41:19.171Z,-0.35
2023-02-26T10:42:23.422Z,-0.36
2023-02-26T10:43:27.569Z,-0.39
2023-02-26T10:44:31.682Z,-0.40
2023-02-26T10:45:35.973Z,-0.37
2023-02-26T10:46:40.174Z,-0.35
2023-02-26T10:47:44.708Z,-0.38
2023-02-26T10:48:48.495Z,-0.43
2023-02-26T10:49:52.679Z,-0.45
2023-02-26T10:50:56.810Z,-0.48
2023-02-26T10:53:28.094Z,-0.48
2023-02-26T10:54:32.247Z,-0.43
2023-02-26T10:55:36.549Z,-0.36
2023-02-26T10:56:46.572Z,-0.30
2023-02-26T10:57:49.284Z,-0.21
2023-02-26T10:58:53.590Z,-0.19
2023-02-26T10:59:57.623Z,-0.14
2023-02-26T11:01:01.925Z,-0.17
2023-02-26T11:02:06.063Z,-0.14
2023-02-26T11:03:10.198Z,-0.11
2023-02-26T11:04:14.244Z,-0.07
2023-02-26T11:05:18.546Z,-0.03
2023-02-26T11:06:22.799Z,-0.06
2023-02-26T11:07:26.934Z,-0.07
2023-02-26T11:08:31.132Z,-0.04
2023-02-26T11:09:35.318Z,-0.09
2023-02-26T11:10:39.434Z,-0.06
2023-02-26T11:11:43.621Z,-0.02
2023-02-26T11:12:47.820Z,-0.01
2023-02-26T11:13:51.922Z,-0.03
2023-02-26T11:14:56.240Z,-0.06
2023-02-26T11:16:00.445Z,-0.11
2023-02-26T11:17:04.412Z,-0.06
2023-02-26T11:18:08.674Z,-0.01
2023-02-26T11:19:12.871Z,-0.05
2023-02-26T11:20:16.907Z,-0.05
2023-02-26T11:21:21.160Z,-0.01
2023-02-26T11:22:25.361Z,0.04
2023-02-26T11:23:29.431Z,0.04
2023-02-26T11:24:39.679Z,0.05
2023-02-26T11:25:42.444Z,0.02
2023-02-26T11:26:46.720Z,0.05
2023-02-26T11:27:50.843Z,0.02
2023-02-26T11:28:55.099Z,0.05
2023-02-26T11:29:59.216Z,0.04
2023-02-26T11:31:03.515Z,0.07
2023-02-26T11:32:07.628Z,0.12
2023-02-26T11:33:11.713Z,0.18
2023-02-26T11:34:15.962Z,0.19
2023-02-26T11:35:20.094Z,0.20
2023-02-26T11:36:24.812Z,0.25
2023-02-26T11:37:28.538Z,0.28
2023-02-26T11:38:32.691Z,0.26
2023-02-26T11:39:36.798Z,0.33
2023-02-26T11:40:41.013Z,0.37
2023-02-26T11:41:45.215Z,0.47
2023-02-26T11:42:49.462Z,0.49
2023-02-26T11:43:53.579Z,0.44
2023-02-26T11:44:57.743Z,0.31
2023-02-26T11:46:02.013Z,0.19
2023-02-26T11:47:06.274Z,0.13
2023-02-26T11:48:10.489Z,0.13
2023-02-26T11:49:14.673Z,0.16
2023-02-26T11:50:21.880Z,0.19
2023-02-26T11:51:25.630Z,0.20
2023-02-26T11:52:29.278Z,0.23
2023-02-26T11:53:33.486Z,0.30
2023-02-26T11:54:37.664Z,0.39
2023-02-26T11:55:41.969Z,0.45
2023-02-26T11:56:46.085Z,0.49
2023-02-26T11:57:50.372Z,0.53
2023-02-26T11:58:55.347Z,0.49
2023-02-26T11:59:58.692Z,0.48
2023-02-26T12:01:02.892Z,0.48
2023-02-26T12:02:07.116Z,0.44
2023-02-26T12:03:11.339Z,0.33
2023-02-26T12:04:15.442Z,0.25
2023-02-26T12:05:19.593Z,0.17
2023-02-26T12:06:23.743Z,0.11
2023-02-26T12:07:27.926Z,0.07
2023-02-26T12:08:32.116Z,0.08
2023-02-26T12:09:36.691Z,0.11
2023-02-26T12:10:40.896Z,0.20
2023-02-26T12:11:45.126Z,0.26
2023-02-26T12:12:49.406Z,0.24
2023-02-26T12:13:53.592Z,0.24
2023-02-26T12:14:57.738Z,0.23
2023-02-26T12:16:02.017Z,0.18
2023-02-26T12:17:06.086Z,0.11
2023-02-26T12:18:10.322Z,0.09
2023-02-26T12:19:14.435Z,0.13
2023-02-26T12:20:18.680Z,0.16
2023-02-26T12:21:36.966Z,0.13
2023-02-26T12:22:40.083Z,0.12
2023-02-26T12:23:44.216Z,0.17
2023-02-26T12:24:48.436Z,0.27
2023-02-26T12:25:52.518Z,0.44
2023-02-26T12:26:56.895Z,0.62
2023-02-26T12:28:01.068Z,0.79
2023-02-26T12:29:05.169Z,0.84
2023-02-26T12:30:09.434Z,0.82
2023-02-26T12:31:13.843Z,0.77
2023-02-26T12:32:18.097Z,0.68
2023-02-26T12:33:22.101Z,0.65
2023-02-26T12:34:26.270Z,0.61
2023-02-26T12:35:30.505Z,0.58
2023-02-26T12:36:48.070Z,0.54
2023-02-26T12:37:38.801Z,0.54
2023-02-26T12:38:42.918Z,0.46
2023-02-26T12:39:47.129Z,0.36
2023-02-26T12:40:51.328Z,0.24
2023-02-26T12:41:55.486Z,0.17
2023-02-26T12:42:59.643Z,0.16
2023-02-26T12:44:03.805Z,0.27
2023-02-26T12:45:08.004Z,0.36
2023-02-26T12:46:12.256Z,0.40
2023-02-26T12:47:16.358Z,0.35
2023-02-26T12:48:20.563Z,0.37
2023-02-26T12:49:24.810Z,0.35
2023-02-26T12:50:28.944Z,0.31
2023-02-26T12:51:33.124Z,0.30
2023-02-26T12:52:37.437Z,0.23
2023-02-26T12:53:41.572Z,0.21
2023-02-26T12:54:45.780Z,0.27
2023-02-26T12:55:50.029Z,0.17
2023-02-26T12:56:57.156Z,0.13
2023-02-26T12:58:06.482Z,0.00
2023-02-26T12:59:09.301Z,-0.07
2023-02-26T13:00:13.372Z,-0.14
2023-02-26T13:01:17.576Z,-0.23
2023-02-26T13:02:21.750Z,-0.29
2023-02-26T13:03:26.000Z,-0.32
2023-02-26T13:04:30.174Z,-0.27
2023-02-26T13:05:34.326Z,-0.28
2023-02-26T13:06:38.527Z,-0.26
2023-02-26T13:07:42.731Z,-0.16
2023-02-26T13:08:46.956Z,-0.10
2023-02-26T13:09:51.142Z,-0.15
2023-02-26T13:10:55.358Z,-0.21
2023-02-26T13:11:59.533Z,-0.23
2023-02-26T13:13:03.774Z,-0.25
2023-02-26T13:14:07.966Z,-0.28
2023-02-26T13:15:12.125Z,-0.29
2023-02-26T13:16:16.376Z,-0.14
2023-02-26T13:17:20.473Z,0.09
2023-02-26T13:18:24.658Z,0.16
2023-02-26T13:19:28.856Z,0.24
2023-02-26T13:20:33.147Z,0.35
2023-02-26T13:21:37.269Z,0.49
2023-02-26T13:22:42.348Z,0.62
2023-02-26T13:23:46.320Z,0.74
2023-02-26T13:24:50.380Z,0.80
2023-02-26T13:25:54.548Z,0.80
2023-02-26T13:26:58.916Z,0.75
2023-02-26T13:28:03.109Z,0.66
2023-02-26T13:29:07.287Z,0.58
2023-02-26T13:30:11.386Z,0.50
2023-02-26T13:31:15.796Z,0.34
2023-02-26T13:32:20.074Z,0.28
2023-02-26T13:33:24.078Z,0.13
2023-02-26T13:34:28.300Z,0.08
2023-02-26T13:35:32.600Z,0.03
2023-02-26T13:36:36.669Z,-0.06
2023-02-26T13:37:41.034Z,-0.07
2023-02-26T13:38:45.193Z,-0.10
2023-02-26T13:39:49.367Z,-0.04
2023-02-26T13:40:53.583Z,0.05
2023-02-26T13:41:57.846Z,0.14
2023-02-26T13:43:02.008Z,0.24
2023-02-26T13:44:06.300Z,0.32
2023-02-26T13:45:10.448Z,0.41
2023-02-26T13:46:14.645Z,0.43
2023-02-26T13:47:18.910Z,0.44
2023-02-26T13:48:23.161Z,0.47
2023-02-26T13:49:27.378Z,0.45
2023-02-26T13:50:31.583Z,0.42
2023-02-26T13:51:35.739Z,0.42
2023-02-26T13:52:40.037Z,0.40
2023-02-26T13:53:44.153Z,0.42
2023-02-26T13:54:48.319Z,0.39
2023-02-26T13:55:52.587Z,0.38
2023-02-26T13:56:56.762Z,0.35
2023-02-26T13:58:01.037Z,0.31